Craven Arms, United Kingdom
Current Conditions -  °F | °C
As of 7:50 AM on Wednesday 26 Nov 2014 (Local Time) from EGOS Reporting Station
Haze Haze  
Wind Chill: 39°   Ceiling: 900
Heat Index: 43°   Visibility: 1.5mi
Dew Point: 43°   Wind: 7mph
Humidity: 100%   Direction: 350°N
Pressure: 29.91"   Gusts: NA
Location:  52.44°N, 2.84°W
Report Text: EGOS 260750Z 35006KT 2500 BR SCT007 BKN009 06/06 Q1013 YLO1 TEMPO 4000 BR GRN
Loading
Personal Weather Stations






























Interactive Weather Map New forecast layout! Learn more

10-Day Weather Forecast

Advertisements
Track Severe Weather on mobile